Atwood, Tennessee
Current Conditions -  °F | °C
As of 8:53 AM on Wednesday 22 Oct 2014 (Local Time) from KMKL Reporting Station
Clear Clear  
Wind Chill: 51°   Ceiling: Unl
Heat Index: 51°   Visibility: 10mi
Dew Point: 45°   Wind: 6mph
Humidity: 80%   Direction: 30°NNE
Pressure: 30.26"   Gusts: NA
Location:  35.97°N, 88.68°W
Report Text: KMKL 221353Z 03005KT 10SM CLR 11/07 A3026 RMK AO2 SLP247 T01060072
Loading
Personal Weather Stations






























Interactive Weather Map
Tropical Storm Tracking
New forecast layout! Learn more

10-Day Weather Forecast

Advertisements
Track Severe Weather on mobile